Weather observations for the past three days for
Sutton, Braxton County Airport
Imperial (Metric)
Date Time (edt) Wind (mph) Vis. (mi.) Weather Sky Cond. Temperature (ºF) Relative Humidity Wind Chill (°F) Heat Index (°F) Pressure Precipitation (in)
Air Dwpt 6 hour altimeter (in) sea level (mb) 1 hr 3 hr 6 hr
Max. Min.
05 00:15 Calm 10.00 Overcast OVC140 54.3 50 85% 29.83 0.0
04 23:55 Calm 9.00 Overcast OVC140 52 49.8 92% 29.82 0.0
04 23:35 Calm 9.00 Mostly Cloudy BKN150 51.6 49.1 91% 29.83 0.0
04 23:15 Calm 10.00 A Few Clouds FEW160 50.5 48.4 92% 29.83 0.0
04 22:55 Calm 10.00 Fair CLR 50.7 48.7 93% 29.83 0.0
04 22:35 Calm 9.00 Fair CLR 51.3 48.7 91% 29.83 0.0
04 22:15 Calm 10.00 Fair CLR 52 49.3 91% 29.82 0.0
04 21:55 Calm 9.00 Fair CLR 53.2 49.6 88% 29.82 0.0
04 21:35 Calm 10.00 Fair CLR 54.1 50.2 87% 29.82 0.0
04 21:15 Calm 9.00 Fair CLR 56.1 50.9 83% 29.82 0.0
04 20:55 Calm 9.00 Fair CLR 55.6 50.9 84% 29.82 0.0
04 20:15 Calm 9.00 Fair CLR 58.6 51.6 78% 29.82 0.0
04 19:55 Calm 9.00 Mostly Cloudy BKN090 63.3 53.1 72.1 63.3 69% 29.83 0.0
04 19:35 Calm 9.00 Mostly Cloudy BKN095 67.1 51.3 57% 29.83 0.0
04 19:15 Calm 9.00 Partly Cloudy SCT095 69.6 47.1 45% 29.83 0.0
04 18:55 Vrbl 5 10.00 A Few Clouds FEW100 70.5 46.9 43% 29.84 0.0
04 18:35 W 6 10.00 Fair CLR 70.9 46.4 42% 29.84 0.0
04 18:15 Vrbl 5 10.00 Partly Cloudy SCT100 70.9 46.6 42% 29.84 0.0
04 17:55 Vrbl 7 10.00 Overcast SCT110 OVC140 70.3 46.6 43% 29.84 0.0
04 17:35 W 8 9.00 Mostly Cloudy FEW110 BKN140 70 46.6 43% 29.84 0.0
04 17:15 Vrbl 7 10.00 Mostly Cloudy FEW070 SCT095 BKN120 72.1 46.6 40% 29.83 0.0
04 16:55 Vrbl 5 9.00 Mostly Cloudy BKN110 BKN160 71.1 46.2 41% 29.83 0.0
04 16:35 Vrbl 6 10.00 Mostly Cloudy BKN110 BKN170 71.8 46.2 40% 29.83 0.0
04 16:15 Calm 10.00 Mostly Cloudy BKN100 BKN130 70.7 45.1 40% 29.83 0.0
04 15:55 SW 8 10.00 Mostly Cloudy FEW070 SCT085 BKN100 71.4 45.5 40% 29.84 0.0
04 15:35 W 6 G 17 10.00 Partly Cloudy FEW110 SCT340 SCT370 71.6 46.2 40% 29.84 0.0
04 15:15 W 10 10.00 Partly Cloudy FEW110 SCT370 71.6 45.1 39% 29.84 0.0
04 14:55 Vrbl 6 10.00 Partly Cloudy FEW110 SCT370 72 46.8 41% 29.84 0.0
04 14:35 SW 8 10.00 A Few Clouds FEW370 71.2 45.7 40% 29.85 0.0
04 14:15 W 8 G 16 10.00 Fair CLR 70.5 45.9 41% 29.86 0.0
04 13:55 Vrbl 5 10.00 Fair CLR 69.6 45.9 69.6 51.4 43% 29.87 0.0
04 13:35 Vrbl 3 10.00 Fair CLR 68.2 45.5 44% 29.88 0.0
04 13:15 Vrbl 7 10.00 A Few Clouds FEW350 66.6 45.3 47% 29.89 0.0
04 12:55 SW 8 10.00 Partly Cloudy FEW090 SCT110 64.6 44.4 48% 29.91 0.0
04 12:35 Vrbl 5 10.00 Mostly Cloudy FEW070 SCT095 BKN120 62.6 45 53% 29.92 0.0
04 12:15 Vrbl 5 10.00 Overcast OVC080 62.8 44.6 52% 29.92 0.0
04 11:55 W 8 10.00 Overcast BKN060 OVC085 62.1 44.2 52% 29.94 0.0
04 11:35 Vrbl 5 10.00 Overcast OVC065 62.4 43.7 51% 29.95 0.0
04 11:15 W 8 10.00 Overcast SCT060 BKN080 OVC095 62.1 43 50% 29.95 0.0
04 10:55 W 8 10.00 Mostly Cloudy BKN080 BKN090 62.6 42.8 49% 29.94 0.0
04 10:35 Vrbl 3 10.00 Mostly Cloudy BKN075 62.1 41.5 47% 29.94 0.0
04 10:15 SW 9 G 18 10.00 Fair CLR 61.5 40.3 46% 29.94 0.0
04 09:55 SW 10 G 17 10.00 Mostly Cloudy BKN075 BKN095 61.2 39.6 45% 29.94 0.0
04 09:35 Vrbl 5 10.00 Mostly Cloudy SCT075 BKN095 60.4 39.4 46% 29.94 0.0
04 09:15 Vrbl 6 10.00 A Few Clouds FEW085 59.7 39 46% 29.94 0.0
04 08:55 Calm 10.00 A Few Clouds FEW085 57.6 38.5 49% 29.93 0.0
04 08:35 Calm 10.00 Fair CLR 56.5 39 52% 29.93 0.0
04 08:15 Calm 10.00 Fair CLR 53.2 40.8 63% 29.94 0.0
04 07:55 Calm 10.00 A Few Clouds FEW080 49.5 42.8 51.3 43.2 78% 29.93 0.0
04 07:35 Calm 10.00 Mostly Cloudy BKN075 BKN095 47.3 44.1 89% 29.94 0.0
04 07:15 Calm 9.00 Mostly Cloudy BKN070 46.4 42.3 86% 29.94 0.0
04 06:55 Calm 10.00 Overcast OVC070 45.1 42.6 91% 29.94 0.0
04 06:35 Calm 10.00 Overcast OVC070 45 43.2 93% 29.94 0.0
04 06:15 Calm 10.00 Overcast BKN075 OVC100 45.5 43.7 93% 29.94 0.0
04 05:55 Calm 10.00 Overcast OVC080 45 43.3 94% 29.95 0.0
04 05:35 Calm 10.00 Overcast BKN075 OVC090 44.2 43.2 96% 29.95 0.0
04 05:15 Calm 10.00 Mostly Cloudy BKN075 44.1 42.6 95% 29.96 0.0
04 04:55 Calm 10.00 Overcast BKN075 BKN085 OVC110 45 43.5 95% 29.96 0.0
04 04:35 Calm 10.00 Overcast BKN075 OVC110 45.9 43.9 93% 29.96 0.0
04 04:15 Calm 10.00 Overcast OVC075 47.1 43.9 89% 29.96 0.0
04 03:55 Calm 10.00 Overcast OVC070 47.8 43 83% 29.96 0.0
04 03:35 Calm 10.00 Overcast OVC075 48.6 42.1 78% 29.96 0.0
04 03:15 Calm 10.00 Overcast OVC070 48.2 42.4 81% 29.97 0.0
04 02:55 Calm 9.00 Light Rain OVC070 48.9 41 74% 29.97 0.0
04 02:35 Calm 10.00 Overcast OVC075 50.4 38.3 63% 29.99 0.0
04 02:15 Calm 10.00 Overcast OVC080 50.9 36 57% 29.99 0.0
04 01:55 Vrbl 5 10.00 Overcast OVC080 50.7 33.6 55 41.9 52% 29.99 0.0
04 01:35 Vrbl 3 10.00 Overcast OVC075 46.2 37 70% 29.99 0.0
04 01:15 Calm 10.00 Overcast OVC075 44.6 40.6 86% 29.99 0.0
04 00:55 Calm 10.00 Mostly Cloudy BKN070 41.9 38.8 89% 29.98 0.0
04 00:35 Calm 10.00 Mostly Cloudy BKN075 42.4 39.6 90% 29.98 0.0
04 00:15 Calm 10.00 Overcast OVC080 43.2 39.4 87% 29.98 0.0
03 23:55 Calm 10.00 Overcast OVC085 44.2 39.4 83% 29.98 0.0
03 23:35 Calm 10.00 Overcast OVC085 45 39.6 81% 29.98 0.0
03 23:15 Calm 10.00 Overcast OVC090 45.7 40.3 82% 29.98 0.0
03 22:55 Calm 10.00 Mostly Cloudy BKN090 45.9 38.8 77% 29.99 0.0
03 22:35 Calm 10.00 Partly Cloudy SCT090 44.4 38.3 79% 29.98 0.0
03 22:15 Calm 10.00 Mostly Cloudy BKN100 48.2 39 71% 29.98 0.0
03 21:55 Calm 10.00 Overcast OVC090 50.2 39 66% 29.99 0.0
03 21:35 Calm 10.00 Overcast OVC090 50.2 38.5 64% 29.99 0.0
03 21:15 Calm 10.00 Overcast OVC100 50.7 37 60% 29.98 0.0
03 20:55 Calm 10.00 Overcast OVC100 51.4 37 58% 29.98 0.0
03 20:35 Calm 10.00 Overcast OVC100 51.4 36.3 56% 29.97 0.0
03 20:15 Calm 10.00 Overcast OVC110 52.3 36.7 55% 29.98 0.0
03 19:55 Calm 10.00 Overcast OVC110 55.8 27.1 59.4 54.5 33% 29.98 0.0
03 19:35 W 5 10.00 Overcast OVC120 56.1 26.8 32% 29.98 0.0
03 19:15 W 5 10.00 Overcast OVC120 56.5 25.9 31% 29.98 0.0
03 18:35 Vrbl 7 10.00 Fair CLR 58.1 26.2 29% 29.99 0.0
03 18:15 Vrbl 6 10.00 Fair CLR 58.1 24.8 28% 29.99 0.0
03 17:55 Vrbl 7 10.00 Fair CLR 58.8 25.3 28% 29.99 0.0
03 17:35 Vrbl 5 10.00 Fair CLR 58.5 25.2 28% 29.98 0.0
03 17:15 Vrbl 7 10.00 Fair CLR 59.4 26.6 29% 29.99 0.0
03 16:55 W 8 10.00 Fair CLR 58.6 25.9 29% 30 0.0
03 16:35 Vrbl 3 10.00 Fair CLR 58.5 26.1 29% 30 0.0
03 16:15 Vrbl 3 10.00 Fair CLR 57.7 25 28% 30.01 0.0
03 15:55 Vrbl 7 10.00 Fair CLR 57.2 25.5 30% 30.02 0.0
03 15:35 W 8 10.00 Fair CLR 57.4 25.5 29% 30.04 0.0
03 15:15 Vrbl 6 10.00 A Few Clouds FEW070 57.4 25.9 30% 30.04 0.0
03 14:55 Vrbl 7 10.00 Partly Cloudy SCT070 57.2 26.8 31% 30.05 0.0
03 14:35 Vrbl 5 10.00 Partly Cloudy SCT070 55 25.9 32% 30.06 0.0
03 14:15 SW 10 G 17 9.00 A Few Clouds FEW070 54.9 25.5 32% 30.06 0.0
03 13:55 Vrbl 6 10.00 A Few Clouds FEW065 54.7 25.5 55.2 36.5 32% 30.07 0.0
03 13:35 Vrbl 7 10.00 Fair CLR 55 26.8 34% 30.07 0.0
03 13:15 SW 8 10.00 Fair CLR 53.8 26.6 35% 30.08 0.0
03 12:55 Vrbl 3 10.00 Fair CLR 53.1 26.2 35% 30.09 0.0
03 12:35 Vrbl 7 10.00 Fair CLR 52.3 26.4 37% 30.09 0.0
03 12:15 Vrbl 7 10.00 A Few Clouds FEW055 52 26.8 38% 30.11 0.0
03 11:55 Vrbl 3 10.00 Partly Cloudy SCT050 50.5 26.4 39% 30.12 0.0
03 11:35 Vrbl 7 10.00 Mostly Cloudy BKN050 48.9 27.1 43% 46 30.12 0.0
03 11:15 Vrbl 7 10.00 Partly Cloudy SCT050 49.1 28.8 46% 47 30.12 0.0
03 10:55 NW 8 10.00 Fair CLR 48.6 27.5 44% 45 30.12 0.0
03 10:35 W 7 10.00 Fair CLR 48 26.6 43% 45 30.12 0.0
03 10:15 Vrbl 6 10.00 Fair CLR 45.7 29.8 54% 43 30.13 0.0
03 09:55 Vrbl 5 10.00 Fair CLR 45 30.9 58% 43 30.13 0.0
03 09:35 Vrbl 6 10.00 Fair CLR 44.2 32.4 63% 41 30.13 0.0
03 09:15 Calm 10.00 Fair CLR 42.6 33.1 69% 30.12 0.0
03 08:55 Calm 10.00 Fair CLR 40.6 34.3 78% 30.12 0.0
03 08:35 Vrbl 3 10.00 Fair CLR 39.2 34.3 83% 30.12 0.0
03 08:15 Calm 10.00 Fair CLR 37.8 35.2 91% 30.11 0.0
03 07:55 Calm 10.00 Fair CLR 34.9 34.9 34.9 28.4 100% 30.1 0.0
03 07:35 Calm 10.00 Fair CLR 31.8 31.8 100% 30.1 0.0
03 07:15 Calm 2.00 Fog/Mist CLR 30.4 30.4 100% 30.09 0.0
03 06:55 Calm 4.00 Fog/Mist CLR 28.9 28.9 100% 30.08 0.0
03 06:35 Calm 1.25 Fog/Mist CLR 29.5 29.5 100% 30.08 0.0
03 06:15 Calm 2.00 Fog/Mist CLR 29.1 29.1 100% 30.07 0.0
03 05:55 Calm 8.00 Fair CLR 29.8 29.8 100% 30.06 0.0
03 05:35 Calm 10.00 Fair CLR 28.9 28.9 100% 30.06 0.0
03 05:15 Calm 10.00 Fair CLR 29.5 29.5 100% 30.06 0.0
03 04:55 Calm 10.00 Fair CLR 29.7 29.7 100% 30.05 0.0
03 04:35 Calm 10.00 Fair CLR 30.4 30.4 100% 30.05 0.0
03 04:15 Calm 10.00 Fair CLR 29.7 29.5 99% 30.05 0.0
03 03:55 Calm 10.00 Fair CLR 31.1 30.7 99% 30.05 0.0
03 03:35 Calm 10.00 Fair CLR 30.2 29.8 99% 30.04 0.0
03 03:15 Calm 10.00 Partly Cloudy SCT070 31.5 30.7 97% 30.04 0.0
03 02:55 Calm 10.00 Mostly Cloudy BKN070 31.6 30.7 96% 30.03 0.0
03 02:35 Calm 10.00 Partly Cloudy SCT070 32.2 31.3 96% 30.03 0.0
03 02:15 Calm 10.00 Partly Cloudy SCT070 32.9 31.8 96% 30.03 0.0
03 01:55 Calm 9.00 Mostly Cloudy BKN075 33.1 31.6 49.3 33.1 94% 30.03 0.0
03 01:35 Calm 10.00 Mostly Cloudy BKN075 33.8 32.2 94% 30.03 0.0
03 01:15 Calm 10.00 Mostly Cloudy BKN075 35.4 32.7 90% 30.03 0.0
03 00:55 Calm 10.00 Overcast OVC075 36.3 33.1 88% 30.03 0.0
03 00:35 Calm 10.00 Mostly Cloudy BKN075 36.9 32.5 84% 30.03 0.0
03 00:15 Calm 10.00 Mostly Cloudy BKN075 39.6 31.8 74% 30.03 0.0
02 23:55 Vrbl 3 10.00 Overcast OVC080 41.2 30.9 67% 30.03 0.0
02 23:35 Calm 10.00 Overcast OVC080 41.4 30.6 66% 30.02 0.0
02 23:15 Calm 10.00 Overcast OVC080 42.4 30.4 62% 30.02 0.0
02 22:55 Vrbl 3 10.00 Overcast OVC080 43 30.2 61% 30.02 0.0
02 22:35 Vrbl 5 10.00 Overcast OVC080 43.5 29.7 58% 41 30.02 0.0
02 22:15 Calm 10.00 Overcast OVC080 44.6 29.1 55% 30.02 0.0
02 21:55 Calm 10.00 Overcast OVC080 45 28.6 53% 30.01 0.0
02 21:35 Calm 10.00 Mostly Cloudy BKN080 45.5 28.4 51% 30 0.0
02 21:15 Calm 10.00 Mostly Cloudy BKN080 46.4 27.9 49% 30 0.0
02 20:55 Vrbl 3 10.00 Overcast BKN075 OVC085 47.5 27.1 45% 29.99 0.0
02 20:35 Calm 10.00 Overcast SCT065 OVC085 47.7 27.1 45% 29.98 0.0
02 20:15 Calm 10.00 Overcast BKN070 OVC090 48.7 26.4 42% 29.97 0.0
02 19:55 Vrbl 3 10.00 Overcast SCT070 OVC090 49.5 25.5 53.6 49.5 39% 29.96 0.0
02 19:35 Calm 10.00 Overcast SCT070 OVC090 49.6 25.9 40% 29.96 0.0
02 19:15 W 5 9.00 Overcast FEW065 OVC090 50.4 25.5 38% 29.95 0.0
02 18:55 Vrbl 5 9.00 Overcast OVC080 50.5 26.6 39% 29.95 0.0
02 18:35 W 3 9.00 Overcast OVC085 50.5 25.9 38% 29.95 0.0
02 18:15 Vrbl 6 10.00 Overcast SCT060 OVC080 51.1 25.9 38% 29.95 0.0
02 17:55 Vrbl 5 10.00 Overcast SCT065 OVC080 51.1 25.9 38% 29.95 0.0
02 17:35 Vrbl 6 10.00 Overcast OVC080 51.8 26.1 37% 29.94 0.0
02 17:15 Vrbl 5 10.00 Overcast OVC080 51.4 25.7 37% 29.94 0.0
02 16:55 W 7 10.00 Overcast OVC075 51.6 26.4 38% 29.94 0.0
02 16:35 Vrbl 7 10.00 Overcast OVC070 52.3 27.3 38% 29.94 0.0
02 16:15 W 6 9.00 Overcast BKN065 OVC080 51.6 25.3 36% 29.95 0.0
02 15:35 Vrbl 3 10.00 Overcast BKN060 OVC075 52 27.9 39% 29.96 0.0
02 15:15 Vrbl 3 10.00 Overcast OVC075 52 25.9 36% 29.96 0.0
02 14:55 Vrbl 7 10.00 Overcast OVC070 51.3 25.9 37% 29.97 0.0
02 14:35 Vrbl 5 10.00 Overcast OVC070 51.3 26.1 38% 29.97 0.0
02 14:15 Vrbl 5 10.00 Overcast OVC065 51.6 25.9 37% 29.97 0.0
02 13:55 NW 8 10.00 Overcast OVC070 52.7 27.1 54.1 38.8 37% 29.98 0.0
02 13:35 W 6 10.00 Overcast OVC065 51.8 26.8 38% 29.98 0.0
02 13:15 W 7 10.00 Overcast OVC065 50.9 26.6 39% 29.98 0.0
02 12:55 Vrbl 6 10.00 Overcast OVC060 50.7 25.3 37% 29.98 0.0
02 12:35 Vrbl 3 10.00 Overcast OVC060 50.4 24.8 37% 29.99 0.0
02 12:15 Vrbl 7 10.00 Overcast OVC060 49.8 26.1 40% 47 29.99 0.0
02 11:55 NW 8 G 17 10.00 Mostly Cloudy BKN055 50 27.3 41% 47 30 0.0
02 11:35 Vrbl 7 10.00 Partly Cloudy SCT055 52.5 28.6 40% 30 0.0
02 11:15 Vrbl 5 10.00 Mostly Cloudy BKN050 49.1 26.6 42% 48 30 0.0
02 10:55 Vrbl 7 10.00 Overcast SCT035 BKN045 OVC055 49.3 30.2 48% 47 30 0.0
02 10:35 Vrbl 5 10.00 Mostly Cloudy SCT035 BKN045 47.7 33.6 58% 46 30.01 0.0
02 10:15 Vrbl 5 10.00 Partly Cloudy FEW027 SCT037 48.2 31.8 53% 47 30 0.0
02 09:55 Calm 10.00 Mostly Cloudy BKN025 BKN035 47.1 37.6 70% 30 0.0
02 09:35 Calm 10.00 Partly Cloudy FEW022 SCT029 46.6 36.7 69% 30.01 0.0
02 09:15 Calm 10.00 Fair CLR 44.6 37.4 76% 30.01 0.0
02 08:55 Calm 10.00 Fair CLR 43.3 38.5 83% 30 0.0
02 08:35 Calm 10.00 Fair CLR 42.3 39 88% 30 0.0
02 08:15 Calm 10.00 Fair CLR 40.6 40.3 99% 30.01 0.0
02 07:55 Calm 9.00 Partly Cloudy SCT002 38.1 38.1 41 33.6 100% 30.01 0.0
02 07:35 Calm 10.00 Mostly Cloudy BKN002 37.2 37.2 100% 30.01 0.0
02 07:15 Calm 10.00 Partly Cloudy SCT002 36 36 100% 30 0.0
02 06:55 Calm 9.00 Fair CLR 34.7 34.7 100% 30 0.0
02 06:35 Calm 10.00 Fair CLR 34 34 100% 30.01 0.0
02 06:15 Calm 10.00 Fair CLR 34.3 34.3 100% 30.01 0.0
02 05:55 Calm 10.00 Fair CLR 34.7 34.7 100% 30.01 0.0
02 05:35 Calm 10.00 Fair CLR 35.4 35.4 100% 30.01 0.0
02 05:15 Calm 10.00 Fair CLR 34.9 34.9 100% 30.01 0.0
02 04:55 Calm 10.00 Fair CLR 35.1 35.1 100% 30.01 0.0
02 04:35 Calm 10.00 Fair CLR 34.5 34.3 99% 30.01 0.0
02 04:15 Calm 10.00 Fair CLR 35.4 35.2 99% 30.01 0.0
02 03:55 Calm 10.00 Fair CLR 35.8 35.4 99% 30 0.0
02 03:35 Calm 10.00 Fair CLR 35.6 35.1 98% 30 0.0
02 03:15 Calm 10.00 Fair CLR 35.4 35.1 99% 30 0.0
02 02:55 Calm 10.00 Fair CLR 37 36.1 97% 29.99 0.0
02 02:35 Calm 10.00 Fair CLR 35.8 34.9 97% 30 0.0
02 02:15 Calm 10.00 Fair CLR 38.3 36.5 93% 30.01 0.0
02 01:55 Calm 10.00 Partly Cloudy SCT080 41.4 36.9 50.5 41.4 84% 30.01 0.0
02 01:35 Calm 10.00 Mostly Cloudy BKN080 43.2 36.9 79% 30.01 0.0
02 01:15 Calm 10.00 Overcast OVC080 44.4 36.1 73% 30.01 0.0
02 00:55 Calm 10.00 Overcast OVC080 45.1 35.6 69% 30.01 0.0
02 00:35 W 3 10.00 Overcast OVC075 45.3 35.6 69% 30.01 0.0
Date Time (edt) Wind (mph) Vis. (mi.) Weather Sky Cond. Air Dwpt Max. Min. Relative Humidity Wind Chill (°F) Heat Index (°F) altimeter (in) sea level (mb) 1 hr 3 hr 6 hr
6 hour
Temperature (ºF) Pressure Precipitation (in)